This is the latest recevied weather packets stored in our database for station/object IR4UCA-3. If no packets are shown the sender has not sent any weather packets the latest 1 day(s).
| Time | Temp. | Humidity | Pressure | Rain* | Wind** | Luminosity | Snow |
|---|---|---|---|---|---|---|---|
| 1777991390 | 20° C | 83% | 1011.2 hPa | 0 mm | 2.68 m/s, 13° | - | - |
| 1777991272 | 20° C | 83% | 1011.2 hPa | 0 mm | 2.24 m/s, 20° | - | - |
| 1777991149 | 20° C | 83% | 1011.1 hPa | 0 mm | 2.68 m/s, 52° | - | - |
| 1777991029 | 20° C | 82% | 1011.2 hPa | 0 mm | 3.13 m/s, 28° | - | - |
| 1777990909 | 20° C | 82% | 1011.2 hPa | 0 mm | 3.13 m/s, 0° | - | - |
| 1777990787 | 20° C | 83% | 1011.2 hPa | 0 mm | 3.13 m/s, 0° | - | - |
| 1777990669 | 20° C | 83% | 1011.2 hPa | 0 mm | 2.24 m/s, 18° | - | - |
| 1777990549 | 19.44° C | 83% | 1011.1 hPa | 0 mm | 2.68 m/s, 20° | - | - |
| 1777990432 | 20° C | 83% | 1011.1 hPa | 0 mm | 2.68 m/s, 0° | - | - |
| 1777990307 | 20° C | 83% | 1011.2 hPa | 0 mm | 2.68 m/s, 30° | - | - |
| 1777990187 | 20° C | 83% | 1011.1 hPa | 0 mm | 1.34 m/s, 7° | - | - |
| 1777990066 | 19.44° C | 82% | 1011.1 hPa | 0 mm | 3.13 m/s, 11° | - | - |
| 1777989937 | 20° C | 83% | 1011.2 hPa | 0 mm | 2.24 m/s, 17° | - | - |
| 1777989814 | 20° C | 82% | 1011.2 hPa | 0 mm | 3.58 m/s, 8° | - | - |
| 1777989692 | 20° C | 82% | 1011.2 hPa | 0 mm | 3.13 m/s, 38° | - | - |
| 1777989571 | 20° C | 82% | 1011.2 hPa | 0 mm | 2.68 m/s, 8° | - | - |
| 1777989450 | 20° C | 82% | 1011.1 hPa | 0 mm | 2.24 m/s, 344° | - | - |
| 1777989329 | 20° C | 82% | 1011.3 hPa | 0 mm | 2.68 m/s, 32° | - | - |
| 1777989209 | 20° C | 82% | 1011.2 hPa | 0 mm | 2.24 m/s, 30° | - | - |
| 1777989090 | 20° C | 81% | 1011.3 hPa | 0 mm | 2.68 m/s, 21° | - | - |
| 1777988970 | 20° C | 81% | 1011.2 hPa | 0 mm | 2.68 m/s, 99° | - | - |
| 1777988850 | 20.56° C | 80% | 1011.2 hPa | 0 mm | 3.58 m/s, 0° | - | - |
| 1777988730 | 20.56° C | 80% | 1011.2 hPa | 0 mm | 1.79 m/s, 3° | - | - |
| 1777988611 | 20.56° C | 80% | 1011.2 hPa | 0 mm | 1.34 m/s, 7° | - | - |
| 1777988491 | 20.56° C | 80% | 1011.2 hPa | 0 mm | 1.34 m/s, 7° | - | - |
* Rain latest hour (hover to see other rain measurements)
** Current wind speed in m/s (hover to see current wind gust speed)